Lea County Regional Airport
KHOB : now visible

Airfield :











YOU CAN JOIN US ON...

 
LOGIN :

Register | Disclaimer

   EN    FR    IT 

 









Legend :    VFR   Marginal VFR   IFR   Intensive IFR   Very Intensive IFR
Visi :
Ceiling :
>= 8 km
>= 3000ft
5 to 8 km
1000 to 3000 ft
1500m to 5 km
500 to 1000 ft
800 to 1500m
200 to 500 ft
< 800m
< 200 ft
Symbols :   Thunderstorms  Fog  Heavy snow  Heavy precipitations  Wind > 20 kt






- Airport Elevation : 3661 ft


KHOB - Lea County Regional

CURRENT METAR :
  • 181135Z AUTO 36006G12KT 10SM CLR 04/M05 A3024 RMK AO2

EXPIRED METARs :
  • 181115Z AUTO 34012KT 10SM CLR 05/M04 A3022 RMK AO2
  • 181055Z AUTO 34014G19KT 10SM CLR 05/M04 A3020 RMK AO2
  • 181035Z AUTO 35015KT 10SM CLR 05/M04 A3020 RMK AO2
  • 181015Z AUTO 34014KT 10SM CLR 05/M04 A3020 RMK AO2
  • 180955Z AUTO VRB04G10KT 10SM CLR 05/M02 A3020 RMK AO2
  • 180935Z AUTO 34013KT 10SM CLR 05/M01 A3018 RMK AO2
  • 180915Z AUTO 34012KT 10SM CLR 03/M00 A3017 RMK AO2
  • 180855Z AUTO 33008KT 10SM CLR 02/00 A3016 RMK AO2

TAF KHOB
Valid from the 18 at 12:00 until the 19 at 12:00 UTC


181124Z 1812/1912 36012KT P6SM SKC
FM181700 04013KT P6SM SKC
FM182100 07009KT P6SM SKC



MET'MAP, your aeronautical weather chart ! - Copyright ORBIFLY December 2007 - Disclaimer

ORBIFLY MET'MAP TEAM :

Programming & Development : Alexandra Zaïnal
Concept & original design : Baudouin d'Aumeries
Assistance for programming : Marc-Olivier Méhu
Technical & hardware support : Manuel Goepfert

Contact : metmap@orbifly.com




SOURCES & CREDITS :

   NOAA       Earth
Advisory